Time;durP1;ratioP1;P1;durP2;ratioP2;P2;SDS_P1;SDS_P2;PMS_P1;PMS_P2;Temp;Humidity;BMP_temperature;BMP_pressure;BME280_temperature;BME280_humidity;BME280_pressure;Samples;Min_cycle;Max_cycle;Signal;HPM_P1;HPM_P2
2022/01/19 00:01:21;;;;;;;19.05;7.90;;;;;;;-0.98;65.39;102183.07;1415236;90;21502;-79
2022/01/19 00:03:48;;;;;;;13.10;7.20;;;;;;;-0.99;65.37;102173.54;1413339;90;21429;-80
2022/01/19 00:06:16;;;;;;;16.62;7.80;;;;;;;-1.04;65.59;102170.17;1419855;91;21589;-80
2022/01/19 00:08:43;;;;;;;15.23;7.28;;;;;;;-1.03;65.45;102170.61;1426214;90;23606;-80
2022/01/19 00:11:11;;;;;;;14.07;7.85;;;;;;;-1.07;65.68;102166.78;1417211;91;21413;-80
2022/01/19 00:13:38;;;;;;;16.80;7.58;;;;;;;-1.08;65.61;102168.98;1418250;91;22529;-80
2022/01/19 00:16:06;;;;;;;15.40;7.40;;;;;;;-1.10;65.73;102169.00;1423210;90;21514;-81
2022/01/19 00:18:33;;;;;;;17.12;7.78;;;;;;;-1.12;65.49;102170.80;1425582;91;22359;-79
2022/01/19 00:21:01;;;;;;;14.73;7.75;;;;;;;-1.12;65.57;102172.09;1422882;90;21630;-79
2022/01/19 00:23:29;;;;;;;15.93;7.72;;;;;;;-1.14;65.52;102175.16;1423156;91;22492;-78
2022/01/19 00:25:57;;;;;;;13.08;6.00;;;;;;;-1.23;65.94;102175.34;1426629;90;21441;-78
2022/01/19 00:28:26;;;;;;;18.25;7.47;;;;;;;-1.21;65.99;102179.63;1432126;90;21456;-79
2022/01/19 00:30:54;;;;;;;15.45;7.83;;;;;;;-1.21;66.01;102182.22;1421825;90;21589;-78
2022/01/19 00:33:21;;;;;;;18.52;7.30;;;;;;;-1.22;66.07;102184.84;1413700;90;21479;-78
2022/01/19 00:35:50;;;;;;;13.88;6.78;;;;;;;-1.26;66.23;102188.39;1422230;90;22500;-77
2022/01/19 00:38:18;;;;;;;18.48;7.45;;;;;;;-1.32;66.54;102179.39;1432376;90;21458;-77
2022/01/19 00:40:47;;;;;;;18.98;8.68;;;;;;;-1.43;67.01;102181.76;1430576;90;21932;-78
2022/01/19 00:43:15;;;;;;;18.23;8.83;;;;;;;-1.50;67.22;102181.44;1425855;90;23594;-78
2022/01/19 00:45:43;;;;;;;17.60;7.78;;;;;;;-1.51;67.22;102174.54;1402960;90;22241;-77
2022/01/19 00:48:11;;;;;;;18.80;9.00;;;;;;;-1.57;67.61;102170.76;1405552;90;21317;-77
2022/01/19 00:50:38;;;;;;;17.32;7.47;;;;;;;-1.62;67.71;102162.19;1419127;90;21471;-78
2022/01/19 00:53:05;;;;;;;19.23;7.50;;;;;;;-1.66;67.74;102160.55;1431667;89;22646;-78
2022/01/19 00:55:32;;;;;;;21.50;8.63;;;;;;;-1.70;67.85;102157.12;1443553;89;21426;-79
2022/01/19 00:58:00;;;;;;;25.27;9.45;;;;;;;-1.65;67.61;102159.65;1416140;90;22752;-79
2022/01/19 01:00:28;;;;;;;22.67;8.85;;;;;;;-1.61;67.39;102146.59;1421768;91;21613;-79
2022/01/19 01:02:55;;;;;;;17.82;7.85;;;;;;;-1.55;67.09;102142.16;1430027;90;22630;-80
2022/01/19 01:05:23;;;;;;;15.58;7.03;;;;;;;-1.51;67.15;102138.63;1434278;89;21722;-80
2022/01/19 01:07:50;;;;;;;20.85;8.83;;;;;;;-1.51;67.07;102129.09;1432580;90;23619;-80
2022/01/19 01:10:20;;;;;;;20.75;8.08;;;;;;;-1.49;66.68;102116.09;1435183;89;21545;-80
2022/01/19 01:12:51;;;;;;;18.48;9.05;;;;;;;-1.48;66.67;102118.65;1432592;90;21538;-80
2022/01/19 01:20:40;;;;;;;19.35;8.90;;;;;;;-1.55;66.22;102113.17;1421745;90;22572;-80
2022/01/19 01:23:09;;;;;;;25.92;10.48;;;;;;;-1.59;66.23;102104.56;1429208;90;21567;-81
2022/01/19 01:28:27;;;;;;;18.05;9.45;;;;;;;-1.68;66.18;102098.25;1438900;89;23329;-81
2022/01/19 01:30:55;;;;;;;22.35;11.00;;;;;;;-1.68;66.28;102101.30;1402483;91;22247;-81
2022/01/19 01:33:22;;;;;;;28.05;11.43;;;;;;;-1.67;66.31;102100.39;1413823;91;21620;-81
2022/01/19 01:35:49;;;;;;;33.60;12.50;;;;;;;-1.69;66.50;102095.70;1409257;91;21486;-81
2022/01/19 01:38:16;;;;;;;18.98;10.08;;;;;;;-1.72;66.89;102100.95;1421296;91;21835;-81
2022/01/19 01:40:44;;;;;;;18.82;9.58;;;;;;;-1.80;67.19;102092.44;1428097;91;21641;-81
2022/01/19 01:43:11;;;;;;;19.60;10.38;;;;;;;-1.93;68.04;102092.63;1413841;91;21714;-80
2022/01/19 01:45:41;;;;;;;18.80;9.50;;;;;;;-2.09;69.05;102092.51;1390450;92;22677;-80
2022/01/19 01:48:15;;;;;;;14.68;7.05;;;;;;;-2.18;69.63;102093.96;1396621;91;21689;-80
2022/01/19 01:53:32;;;;;;;19.52;8.53;;;;;;;-2.14;68.61;102099.50;1402001;90;21547;-81
2022/01/19 01:56:16;;;;;;;21.05;10.58;;;;;;;-2.07;68.29;102097.23;1426788;89;21471;-79
2022/01/19 01:58:47;;;;;;;21.30;8.05;;;;;;;-1.98;68.13;102105.30;1411031;90;21406;-79
2022/01/19 02:01:14;;;;;;;18.82;8.93;;;;;;;-1.94;67.89;102101.31;1414763;90;22040;-79
2022/01/19 02:03:44;;;;;;;20.80;8.58;;;;;;;-1.90;67.82;102111.19;1427195;89;21449;-79
2022/01/19 02:08:53;;;;;;;14.23;8.35;;;;;;;-1.88;67.59;102111.58;1433651;91;21471;-78
2022/01/19 02:21:37;;;;;;;20.65;9.60;;;;;;;-1.78;67.73;102123.09;1423422;91;21464;-79
2022/01/19 02:22:04;;;;;;;18.30;8.78;;;;;;;-1.95;68.58;102120.38;1431588;91;22537;-80
2022/01/19 02:24:44;;;;;;;17.92;9.68;;;;;;;-2.06;68.46;102120.99;1422614;89;21523;-79
2022/01/19 02:28:56;;;;;;;26.42;11.53;;;;;;;-2.13;69.23;102121.55;1423027;91;21486;-79
2022/01/19 02:30:29;;;;;;;21.97;8.48;;;;;;;-2.18;69.13;102119.45;1408471;91;21516;-78
2022/01/19 02:40:32;;;;;;;22.10;10.10;;;;;;;-2.24;69.11;102119.97;1414670;90;21413;-80
2022/01/19 02:51:05;;;;;;;21.25;10.23;;;;;;;-2.14;68.59;102109.88;1427995;90;21672;-80
2022/01/19 02:53:38;;;;;;;23.77;10.00;;;;;;;-2.18;68.24;102103.05;1431763;90;21397;-80
2022/01/19 02:56:11;;;;;;;19.30;10.10;;;;;;;-2.22;68.13;102092.28;1410946;91;21607;-79
2022/01/19 02:58:42;;;;;;;25.97;12.50;;;;;;;-2.27;68.27;102082.00;1436385;90;21434;-79
2022/01/19 03:09:12;;;;;;;21.65;11.08;;;;;;;-2.25;68.28;102068.99;1408150;91;21562;-79
2022/01/19 03:11:39;;;;;;;24.87;10.88;;;;;;;-2.23;68.20;102064.20;1430556;90;21449;-79
2022/01/19 03:14:08;;;;;;;21.95;11.45;;;;;;;-2.24;68.45;102064.20;1433843;90;21642;-81
2022/01/19 03:16:36;;;;;;;23.92;10.40;;;;;;;-2.31;68.63;102063.02;1428312;90;21523;-81
2022/01/19 03:19:06;;;;;;;17.85;9.63;;;;;;;-2.40;68.57;102067.06;1418272;90;22294;-81
2022/01/19 03:21:33;;;;;;;20.17;10.00;;;;;;;-2.47;68.61;102066.77;1426128;91;22772;-81
2022/01/19 03:24:01;;;;;;;22.67;11.53;;;;;;;-2.53;68.62;102074.20;1434231;90;22136;-81
2022/01/19 03:26:28;;;;;;;22.98;11.10;;;;;;;-2.59;68.58;102077.30;1417037;91;23537;-81
2022/01/19 03:28:55;;;;;;;23.77;12.03;;;;;;;-2.60;68.63;102078.19;1438290;89;21545;-81
2022/01/19 03:31:24;;;;;;;25.20;11.90;;;;;;;-2.61;68.72;102069.56;1428541;90;21589;-80
2022/01/19 03:33:51;;;;;;;27.65;13.60;;;;;;;-2.60;68.91;102073.00;1417353;90;21693;-80
2022/01/19 03:36:19;;;;;;;21.68;11.78;;;;;;;-2.64;69.46;102068.76;1426328;91;21508;-80
2022/01/19 03:38:46;;;;;;;24.00;13.25;;;;;;;-2.68;69.18;102065.78;1428074;89;21685;-81
2022/01/19 03:41:13;;;;;;;29.50;13.20;;;;;;;-2.73;69.00;102070.61;1422768;89;21404;-80
2022/01/19 03:43:40;;;;;;;23.98;10.58;;;;;;;-2.79;69.09;102068.11;1426837;90;21539;-80
2022/01/19 03:46:13;;;;;;;28.92;14.10;;;;;;;-2.80;69.21;102066.81;1426267;90;21441;-81
2022/01/19 03:48:45;;;;;;;40.30;20.82;;;;;;;-2.82;69.17;102068.56;1425585;90;22668;-82
2022/01/19 03:51:06;;;;;;;49.18;21.62;;;;;;;-2.87;69.15;102061.33;1424757;90;21412;-80
2022/01/19 03:53:33;;;;;;;55.75;22.20;;;;;;;-2.88;69.22;102060.44;1429330;91;21435;-79
2022/01/19 03:56:02;;;;;;;48.35;21.35;;;;;;;-2.86;69.29;102060.44;1432835;88;22601;-80
2022/01/19 03:58:29;;;;;;;54.53;24.20;;;;;;;-2.90;69.17;102053.59;1419039;89;21615;-80
2022/01/19 04:00:57;;;;;;;56.30;26.37;;;;;;;-2.91;69.20;102057.89;1440433;89;21559;-80
2022/01/19 04:06:15;;;;;;;53.75;25.62;;;;;;;-2.96;69.25;102054.53;1410832;91;21545;-77
2022/01/19 04:08:31;;;;;;;52.33;23.57;;;;;;;-2.95;69.34;102053.65;1409091;89;22521;-78
2022/01/19 04:10:58;;;;;;;47.62;24.47;;;;;;;-2.93;69.31;102058.79;1430601;89;21434;-79
2022/01/19 04:13:33;;;;;;;46.45;20.77;;;;;;;-2.93;69.44;102061.38;1439255;90;21375;-79
2022/01/19 04:15:54;;;;;;;47.90;20.27;;;;;;;-2.96;69.27;102056.69;1429224;88;21611;-80
2022/01/19 04:18:21;;;;;;;45.60;23.32;;;;;;;-3.00;69.34;102063.21;1406874;90;21396;-80
2022/01/19 04:20:51;;;;;;;46.55;22.65;;;;;;;-3.04;69.57;102061.55;1417624;91;24004;-80
2022/01/19 04:23:21;;;;;;;42.78;21.15;;;;;;;-3.10;69.48;102051.28;1435141;89;22461;-79
2022/01/19 04:25:49;;;;;;;42.03;19.60;;;;;;;-3.19;70.10;102049.23;1436208;91;22523;-80
2022/01/19 04:28:16;;;;;;;41.13;21.57;;;;;;;-3.32;70.64;102046.36;1413294;91;21426;-80
2022/01/19 04:30:44;;;;;;;47.00;23.12;;;;;;;-3.40;70.59;102041.27;1397946;91;21431;-80
2022/01/19 04:33:16;;;;;;;49.75;23.87;;;;;;;-3.41;70.29;102049.07;1412664;90;21442;-80
2022/01/19 04:35:49;;;;;;;46.50;24.23;;;;;;;-3.46;70.16;102045.67;1426076;89;21472;-80
2022/01/19 04:39:07;;;;;;;45.92;21.65;;;;;;;-3.55;71.20;102047.94;1413519;91;24590;-80
2022/01/19 04:54:08;;;;;;;60.88;29.45;;;;;;;-3.86;72.13;102040.95;1433217;90;21557;-79
2022/01/19 04:54:53;;;;;;;71.02;33.42;;;;;;;-3.92;72.17;102035.84;1420684;91;21457;-79
2022/01/19 05:05:34;;;;;;;49.55;25.20;;;;;;;-4.14;72.30;102030.91;1427620;89;21573;-79
2022/01/19 05:08:09;;;;;;;63.78;28.42;;;;;;;-4.20;72.66;102028.38;1416907;90;21641;-80
2022/01/19 05:13:27;;;;;;;65.22;29.12;;;;;;;-4.27;72.36;102031.88;1410530;90;22451;-80
2022/01/19 05:15:54;;;;;;;62.45;28.67;;;;;;;-4.25;72.85;102035.31;1423000;90;22345;-80
2022/01/19 05:18:21;;;;;;;78.45;30.20;;;;;;;-4.28;72.47;102039.22;1424682;91;21486;-81
2022/01/19 05:20:49;;;;;;;63.05;30.50;;;;;;;-4.29;72.88;102048.27;1421716;91;21441;-81
2022/01/19 05:23:17;;;;;;;75.25;31.00;;;;;;;-4.32;72.83;102045.27;1434425;89;21487;-81
2022/01/19 05:25:46;;;;;;;75.03;32.95;;;;;;;-4.35;72.88;102044.00;1431310;90;21524;-81
2022/01/19 05:28:14;;;;;;;71.50;30.95;;;;;;;-4.41;73.33;102040.19;1414696;88;21648;-81
2022/01/19 05:30:42;;;;;;;78.45;34.15;;;;;;;-4.45;73.28;102048.41;1416526;90;21538;-78
2022/01/19 05:33:10;;;;;;;100.55;39.42;;;;;;;-4.48;72.76;102047.58;1416458;91;21463;-79
2022/01/19 05:35:37;;;;;;;95.97;34.65;;;;;;;-4.52;72.96;102040.70;1410999;91;22383;-81
2022/01/19 05:38:06;;;;;;;81.12;33.88;;;;;;;-4.52;73.37;102043.28;1417092;91;21685;-82
2022/01/19 05:40:33;;;;;;;88.05;37.05;;;;;;;-4.55;73.56;102032.53;1390959;91;21545;-80
2022/01/19 05:43:00;;;;;;;80.03;32.48;;;;;;;-4.51;73.46;102037.27;1410396;91;21569;-81
2022/01/19 05:45:28;;;;;;;68.50;30.82;;;;;;;-4.52;73.67;102039.41;1406523;92;21541;-82
2022/01/19 05:47:56;;;;;;;58.30;25.68;;;;;;;-4.52;73.94;102040.70;1410535;91;21443;-81
2022/01/19 05:50:24;;;;;;;53.10;26.07;;;;;;;-4.55;74.19;102042.88;1408708;91;21464;-81
2022/01/19 05:52:52;;;;;;;57.43;25.85;;;;;;;-4.60;74.10;102040.34;1403521;91;22469;-82
2022/01/19 05:55:19;;;;;;;74.67;31.42;;;;;;;-4.61;73.96;102040.34;1407552;91;21549;-81
2022/01/19 05:57:46;;;;;;;57.05;29.42;;;;;;;-4.58;73.68;102044.19;1401150;91;22388;-78
2022/01/19 06:00:14;;;;;;;70.40;32.58;;;;;;;-4.59;73.55;102048.95;1406018;91;21449;-78
2022/01/19 06:02:42;;;;;;;77.32;34.13;;;;;;;-4.59;73.71;102046.36;1398402;91;22384;-81
2022/01/19 06:05:10;;;;;;;75.97;35.17;;;;;;;-4.58;73.91;102055.38;1405053;91;22426;-81
2022/01/19 06:07:44;;;;;;;68.95;32.15;;;;;;;-4.55;73.68;102054.50;1409822;91;21734;-81
2022/01/19 06:10:42;;;;;;;74.85;34.40;;;;;;;-4.55;73.56;102057.94;1405626;92;21479;-80
2022/01/19 06:12:41;;;;;;;78.10;35.65;;;;;;;-4.54;73.56;102059.67;1411076;90;21586;-80
2022/01/19 06:15:08;;;;;;;83.50;38.33;;;;;;;-4.52;73.47;102058.80;1413159;91;22286;-80
2022/01/19 06:17:35;;;;;;;72.80;31.57;;;;;;;-4.51;73.49;102055.36;1403776;91;21406;-80
2022/01/19 06:20:03;;;;;;;77.72;34.00;;;;;;;-4.49;74.01;102053.59;1413524;90;21413;-80
2022/01/19 06:22:30;;;;;;;80.28;32.00;;;;;;;-4.48;74.05;102054.89;1403225;91;21487;-79
2022/01/19 06:24:58;;;;;;;76.70;32.75;;;;;;;-4.46;73.92;102057.45;1398906;92;21563;-79
2022/01/19 06:27:25;;;;;;;99.25;41.68;;;;;;;-4.44;73.77;102057.86;1413447;91;21413;-79
2022/01/19 06:29:52;;;;;;;91.45;42.08;;;;;;;-4.42;73.85;102065.62;1397521;92;22691;-79
2022/01/19 06:32:19;;;;;;;89.52;41.25;;;;;;;-4.43;73.74;102057.42;1400243;92;21456;-80
2022/01/19 06:34:46;;;;;;;99.28;42.05;;;;;;;-4.44;73.49;102062.18;1415962;91;22158;-79
2022/01/19 06:37:14;;;;;;;105.80;48.48;;;;;;;-4.45;73.55;102060.48;1411370;91;21724;-79
2022/01/19 06:39:42;;;;;;;103.60;47.23;;;;;;;-4.41;73.50;102047.94;1408605;91;21484;-79
2022/01/19 06:42:09;;;;;;;93.47;43.40;;;;;;;-4.40;73.51;102048.34;1409739;92;21562;-80
2022/01/19 06:44:36;;;;;;;89.03;40.23;;;;;;;-4.42;73.72;102044.95;1413454;91;21463;-79
2022/01/19 06:47:04;;;;;;;96.60;45.33;;;;;;;-4.45;73.74;102040.66;1416199;91;21559;-79
2022/01/19 06:49:31;;;;;;;92.15;44.33;;;;;;;-4.46;74.23;102035.48;1411231;91;21471;-80
2022/01/19 06:51:59;;;;;;;92.80;40.60;;;;;;;-4.43;74.34;102035.45;1407491;90;21590;-79
2022/01/19 06:54:27;;;;;;;104.25;37.75;;;;;;;-4.40;74.34;102036.31;1407777;91;21634;-79
2022/01/19 06:56:54;;;;;;;89.05;36.45;;;;;;;-4.37;74.42;102032.84;1404995;91;21523;-79
2022/01/19 06:59:21;;;;;;;79.50;37.40;;;;;;;-4.34;74.73;102033.67;1407810;91;21604;-78
2022/01/19 07:01:49;;;;;;;99.60;44.88;;;;;;;-4.25;74.35;102026.27;1391491;93;21472;-79
2022/01/19 07:04:17;;;;;;;96.55;42.10;;;;;;;-4.18;74.60;102028.34;1411000;91;22516;-79
2022/01/19 07:06:44;;;;;;;95.07;47.50;;;;;;;-4.12;74.47;102026.55;1403563;91;22358;-79
2022/01/19 07:09:11;;;;;;;95.77;45.40;;;;;;;-4.03;74.34;102019.58;1417143;90;21487;-79
2022/01/19 07:11:39;;;;;;;101.60;48.15;;;;;;;-3.95;74.39;102015.19;1404219;91;21399;-80
2022/01/19 07:14:08;;;;;;;106.95;50.92;;;;;;;-3.87;74.20;102021.98;1416076;91;21589;-78
2022/01/19 07:16:35;;;;;;;101.53;47.65;;;;;;;-3.80;74.39;102020.18;1389105;93;21473;-78
2022/01/19 07:19:03;;;;;;;108.97;49.42;;;;;;;-3.71;74.20;102023.98;1381102;94;22355;-77
2022/01/19 07:21:30;;;;;;;116.70;48.78;;;;;;;-3.63;74.10;102020.84;1365930;95;21489;-78
2022/01/19 07:23:57;;;;;;;86.63;40.33;;;;;;;-3.56;74.00;102019.50;1409491;90;21653;-78
2022/01/19 07:26:24;;;;;;;88.25;42.62;;;;;;;-3.49;73.91;102016.80;1395363;93;21502;-77
2022/01/19 07:28:51;;;;;;;78.05;37.13;;;;;;;-3.36;73.92;102011.48;1402829;90;22448;-78
2022/01/19 07:31:19;;;;;;;75.67;36.30;;;;;;;-3.27;73.71;102007.48;1405693;91;21443;-79
2022/01/19 07:33:49;;;;;;;79.10;36.85;;;;;;;-3.21;73.46;102013.86;1412461;90;21390;-78
2022/01/19 07:36:16;;;;;;;67.15;32.33;;;;;;;-3.12;73.34;102010.28;1412008;91;21575;-79
2022/01/19 07:38:44;;;;;;;69.80;32.88;;;;;;;-2.98;73.34;102003.17;1408576;91;21532;-79
2022/01/19 07:41:11;;;;;;;77.40;33.53;;;;;;;-2.85;73.08;101998.23;1412065;92;21419;-79
2022/01/19 07:43:38;;;;;;;78.75;36.95;;;;;;;-2.74;72.83;101996.30;1422035;92;21494;-79
2022/01/19 07:46:06;;;;;;;73.17;34.58;;;;;;;-2.63;72.67;101987.52;1411422;92;22344;-79
2022/01/19 07:48:33;;;;;;;72.08;36.28;;;;;;;-2.50;72.50;101979.52;1411525;92;21421;-80
2022/01/19 07:51:00;;;;;;;72.97;36.88;;;;;;;-2.35;72.03;101984.02;1410689;91;22395;-80
2022/01/19 07:53:27;;;;;;;69.97;32.33;;;;;;;-2.24;71.68;101990.28;1399127;91;21421;-80
2022/01/19 07:55:55;;;;;;;84.87;36.13;;;;;;;-2.11;71.68;101995.23;1415797;91;21464;-80
2022/01/19 07:58:22;;;;;;;73.60;34.80;;;;;;;-1.94;71.67;101991.02;1415006;92;21589;-80
2022/01/19 08:00:49;;;;;;;70.92;35.75;;;;;;;-1.75;71.85;101991.98;1406653;92;21499;-80
2022/01/19 08:03:18;;;;;;;62.00;31.20;;;;;;;-1.58;71.08;101992.49;1408368;91;21531;-79
2022/01/19 08:05:45;;;;;;;60.48;31.80;;;;;;;-1.49;70.57;101983.20;1412825;91;21612;-80
2022/01/19 08:08:13;;;;;;;95.70;40.88;;;;;;;-1.35;70.36;101976.42;1410602;91;21479;-79
2022/01/19 08:10:42;;;;;;;95.05;44.85;;;;;;;-1.23;69.99;101966.20;1412204;89;22443;-79
2022/01/19 08:13:10;;;;;;;112.77;52.20;;;;;;;-1.16;69.28;101961.26;1417564;89;22520;-79
2022/01/19 08:15:37;;;;;;;85.22;38.23;;;;;;;-1.04;69.46;101960.12;1431738;89;21575;-79
2022/01/19 08:18:05;;;;;;;69.35;33.23;;;;;;;-0.89;69.19;101962.37;1426054;89;21516;-79
2022/01/19 08:20:32;;;;;;;71.53;36.00;;;;;;;-0.80;68.37;101957.40;1417834;89;23474;-80
2022/01/19 08:22:59;;;;;;;61.58;31.82;;;;;;;-0.66;68.41;101941.43;1430386;89;21575;-79
2022/01/19 08:25:27;;;;;;;60.78;29.80;;;;;;;-0.52;68.57;101944.53;1434352;89;21728;-80
2022/01/19 08:27:54;;;;;;;50.40;24.50;;;;;;;-0.38;67.91;101941.58;1415941;89;21501;-80
2022/01/19 08:30:21;;;;;;;56.23;25.65;;;;;;;-0.29;67.34;101932.22;1424659;89;21382;-80
2022/01/19 08:32:48;;;;;;;54.98;27.77;;;;;;;-0.19;67.23;101931.09;1409565;89;21524;-80
2022/01/19 08:35:16;;;;;;;46.13;23.57;;;;;;;-0.06;66.79;101927.27;1397426;89;21449;-79
2022/01/19 08:37:43;;;;;;;47.95;23.83;;;;;;;0.01;65.30;101927.09;1423450;89;21485;-79
2022/01/19 08:40:12;;;;;;;60.13;25.90;;;;;;;0.11;65.80;101932.42;1451647;89;21530;-80
2022/01/19 08:42:40;;;;;;;51.73;24.00;;;;;;;0.21;65.69;101941.69;1438720;89;21880;-80
2022/01/19 08:45:10;;;;;;;54.93;25.60;;;;;;;0.30;64.82;101941.87;1437248;88;23537;-80
2022/01/19 08:47:39;;;;;;;56.20;25.40;;;;;;;0.33;63.97;101941.33;1423467;89;21999;-80
2022/01/19 08:50:11;;;;;;;46.83;24.13;;;;;;;0.40;63.91;101936.36;1405922;89;21874;-80
2022/01/19 08:52:39;;;;;;;49.50;22.63;;;;;;;0.45;62.82;101940.95;1399430;89;21436;-80
2022/01/19 08:55:07;;;;;;;59.03;27.90;;;;;;;0.47;63.10;101943.98;1417456;89;22522;-80
2022/01/19 08:57:34;;;;;;;46.77;22.73;;;;;;;0.49;62.56;101939.56;1386580;89;21546;-80
2022/01/19 09:00:08;;;;;;;50.20;24.33;;;;;;;0.54;62.94;101932.47;1425036;89;21504;-79
2022/01/19 09:02:35;;;;;;;56.10;25.60;;;;;;;0.59;63.02;101942.30;1398370;89;21537;-80
2022/01/19 09:05:04;;;;;;;31.93;15.87;;;;;;;0.64;63.54;101930.00;1393661;89;22496;-82
2022/01/19 09:07:32;;;;;;;36.73;18.43;;;;;;;0.68;62.38;101927.69;1424004;89;21629;-80
2022/01/19 09:10:00;;;;;;;35.73;18.43;;;;;;;0.75;62.72;101921.40;1402906;89;22720;-80
2022/01/19 09:12:27;;;;;;;28.80;14.13;;;;;;;0.89;62.87;101934.85;1452254;89;21522;-80
2022/01/19 09:14:54;;;;;;;25.07;13.27;;;;;;;0.95;62.04;101942.05;1414734;89;21709;-80
2022/01/19 09:17:21;;;;;;;27.27;14.07;;;;;;;0.93;59.94;101933.45;1423842;89;21551;-80
2022/01/19 09:19:49;;;;;;;35.27;15.57;;;;;;;0.90;60.72;101931.33;1408288;89;22620;-81
2022/01/19 09:22:18;;;;;;;41.73;18.47;;;;;;;0.94;60.53;101929.92;1383304;89;23055;-81
2022/01/19 09:24:45;;;;;;;26.07;13.20;;;;;;;0.95;60.77;101926.41;1416401;89;21751;-80
2022/01/19 09:27:15;;;;;;;53.43;22.97;;;;;;;0.88;58.99;101923.16;1462033;89;21635;-80
2022/01/19 09:29:48;;;;;;;35.97;17.00;;;;;;;0.84;59.90;101913.73;1388168;89;22609;-80
2022/01/19 09:32:16;;;;;;;46.70;20.43;;;;;;;0.90;60.40;101915.69;1412410;89;21574;-81
2022/01/19 09:34:54;;;;;;;44.37;18.50;;;;;;;0.98;60.11;101914.15;1417831;89;22520;-81
2022/01/19 09:37:13;;;;;;;29.80;15.13;;;;;;;1.05;60.18;101913.48;1425874;89;22538;-81
2022/01/19 09:39:40;;;;;;;36.77;15.70;;;;;;;1.12;60.14;101909.76;1432157;89;21621;-82
2022/01/19 09:42:08;;;;;;;36.63;17.13;;;;;;;1.19;59.05;101908.67;1446418;89;21759;-80
2022/01/19 09:44:35;;;;;;;37.43;19.17;;;;;;;1.27;59.28;101901.45;1431352;89;22440;-80
2022/01/19 09:47:03;;;;;;;32.70;18.03;;;;;;;1.45;59.69;101893.89;1424506;89;21614;-85
2022/01/19 09:49:31;;;;;;;24.90;13.20;;;;;;;2.97;56.65;101891.61;1424027;89;21767;-79
2022/01/19 09:51:58;;;;;;;32.13;14.40;;;;;;;2.97;56.65;101891.61;1451243;89;22146;-80
2022/01/19 09:54:31;;;;;;;28.07;13.67;;;;;;;3.67;55.01;101884.30;1435469;89;22319;-80
2022/01/19 09:56:59;;;;;;;30.50;14.13;;;;;;;4.30;53.37;101873.12;1436476;89;21507;-80
2022/01/19 09:59:26;;;;;;;24.63;14.70;;;;;;;4.84;52.67;101862.22;1445668;89;21551;-80
2022/01/19 10:02:16;;;;;;;26.33;14.13;;;;;;;5.00;49.29;101868.00;1458626;89;21477;-80
2022/01/19 10:04:47;;;;;;;18.40;9.87;;;;;;;5.38;50.20;101859.49;1407384;90;21560;-79
2022/01/19 10:07:24;;;;;;;18.70;11.57;;;;;;;5.37;46.74;101858.65;1428122;90;22350;-80
2022/01/19 10:10:05;;;;;;;24.07;14.13;;;;;;;5.51;47.92;101862.34;1419089;89;21575;-79
2022/01/19 10:18:29;;;;;;;24.87;14.40;;;;;;;6.00;48.67;101866.34;1416030;89;21620;-79
2022/01/19 10:21:08;;;;;;;22.20;11.13;;;;;;;6.05;47.47;101849.87;1413955;91;21663;-79
2022/01/19 10:23:54;;;;;;;34.67;16.73;;;;;;;6.04;46.18;101848.15;1405304;89;21605;-79
2022/01/19 10:26:27;;;;;;;15.90;9.30;;;;;;;5.92;45.90;101855.36;1425846;90;22403;-78
2022/01/19 10:29:08;;;;;;;19.23;11.23;;;;;;;5.80;45.94;101849.83;1427127;90;23021;-79
2022/01/19 10:31:40;;;;;;;35.27;17.30;;;;;;;5.58;46.07;101850.58;1433427;90;21608;-79
2022/01/19 10:34:22;;;;;;;25.37;13.40;;;;;;;5.60;45.46;101844.79;1421841;90;21383;-79
2022/01/19 10:36:56;;;;;;;27.70;12.37;;;;;;;5.37;46.43;101838.95;1417700;90;21471;-78
2022/01/19 10:39:29;;;;;;;23.83;12.23;;;;;;;5.33;46.24;101828.72;1418991;91;22528;-79
2022/01/19 10:42:04;;;;;;;30.40;15.23;;;;;;;5.54;47.44;101821.48;1414854;90;21583;-79
2022/01/19 10:44:41;;;;;;;23.53;13.57;;;;;;;5.47;47.22;101822.72;1409164;91;21495;-79
2022/01/19 10:47:10;;;;;;;20.70;11.07;;;;;;;5.57;47.46;101831.83;1394009;91;21553;-79
2022/01/19 10:49:56;;;;;;;12.07;7.77;;;;;;;5.79;47.33;101827.13;1423013;90;21546;-80
2022/01/19 10:52:40;;;;;;;17.77;9.73;;;;;;;5.48;45.97;101832.31;1427081;90;21450;-79
2022/01/19 10:55:24;;;;;;;14.93;9.10;;;;;;;5.63;45.78;101831.49;1418993;91;21479;-79
2022/01/19 10:57:53;;;;;;;29.37;15.83;;;;;;;5.39;45.91;101827.92;1425385;91;21376;-79
2022/01/19 11:00:25;;;;;;;18.63;11.30;;;;;;;5.59;48.10;101828.66;1433669;91;21427;-79
2022/01/19 11:02:58;;;;;;;18.47;11.07;;;;;;;5.60;46.93;101821.16;1436739;90;21479;-79
2022/01/19 11:05:47;;;;;;;18.37;10.63;;;;;;;5.63;47.64;101810.48;1429500;90;21442;-78
2022/01/19 11:08:18;;;;;;;18.80;12.10;;;;;;;5.48;46.40;101804.73;1417998;90;21518;-78
2022/01/19 11:10:49;;;;;;;22.95;13.15;;;;;;;5.20;47.05;101800.92;1427374;91;22402;-79
2022/01/19 11:13:40;;;;;;;;;;;;;;;5.04;47.86;101792.16;1430823;89;21553;-79
2022/01/19 11:16:05;;;;;;;24.97;12.63;;;;;;;5.00;47.99;101791.91;1415983;90;20251;-79
2022/01/19 11:18:35;;;;;;;26.27;11.43;;;;;;;4.88;48.35;101786.36;1408644;91;21627;-79
2022/01/19 11:21:10;;;;;;;19.70;9.53;;;;;;;4.83;48.67;101784.42;1426876;89;21501;-79
2022/01/19 11:24:05;;;;;;;42.17;20.30;;;;;;;4.83;49.47;101777.02;1425341;91;21473;-79
2022/01/19 11:26:35;;;;;;;19.57;10.53;;;;;;;5.04;49.89;101773.79;1422502;90;21547;-79
2022/01/19 11:29:19;;;;;;;16.40;9.83;;;;;;;5.37;49.55;101762.81;1408751;91;22396;-79
2022/01/19 11:31:50;;;;;;;20.83;10.37;;;;;;;5.49;48.73;101764.41;1420375;91;21501;-79
2022/01/19 11:34:46;;;;;;;15.55;9.60;;;;;;;5.55;48.12;101762.33;1401609;90;21568;-79
2022/01/19 11:37:14;;;;;;;18.10;10.53;;;;;;;5.27;48.46;101759.47;1423611;91;21449;-79
2022/01/19 11:40:11;;;;;;;17.30;10.63;;;;;;;5.25;48.88;101750.81;1422988;91;21722;-79
2022/01/19 11:42:40;;;;;;;16.17;10.27;;;;;;;5.38;48.33;101766.28;1423240;91;22572;-79
2022/01/19 11:45:12;;;;;;;22.13;12.77;;;;;;;5.25;48.24;101759.53;1422083;90;22484;-79
2022/01/19 11:47:43;;;;;;;21.27;11.03;;;;;;;5.17;48.34;101748.59;1416786;91;22315;-79
2022/01/19 11:50:15;;;;;;;20.40;11.40;;;;;;;5.10;48.27;101737.57;1428732;90;22447;-79
2022/01/19 11:52:53;;;;;;;21.90;13.00;;;;;;;5.11;48.69;101731.86;1418470;90;21649;-79
2022/01/19 11:55:25;;;;;;;22.73;11.53;;;;;;;5.22;49.35;101724.73;1422090;90;21642;-78
2022/01/19 11:58:17;;;;;;;21.70;10.57;;;;;;;5.36;48.80;101721.75;1428282;90;21466;-79
2022/01/19 12:00:47;;;;;;;20.57;12.55;;;;;;;5.51;48.99;101718.76;1421996;89;21392;-79
2022/01/19 12:03:25;;;;;;;20.33;11.07;;;;;;;5.74;49.50;101720.12;1441632;91;21405;-79
2022/01/19 12:05:55;;;;;;;15.87;10.03;;;;;;;5.81;48.00;101713.61;1421563;90;21670;-79
2022/01/19 12:08:33;;;;;;;18.05;10.60;;;;;;;5.83;47.29;101703.84;1407972;89;22382;-79
2022/01/19 12:11:23;;;;;;;22.10;10.93;;;;;;;5.89;47.25;101715.32;1418507;91;21479;-79
2022/01/19 12:14:22;;;;;;;15.63;10.10;;;;;;;5.94;47.98;101710.32;1433397;89;21449;-80
2022/01/19 12:17:24;;;;;;;16.17;9.60;;;;;;;5.89;47.31;101700.87;1418271;91;21552;-79
2022/01/19 12:19:42;;;;;;;18.07;10.23;;;;;;;5.99;47.19;101697.78;1414084;90;21510;-79
2022/01/19 12:22:22;;;;;;;;;;;;;;;5.99;47.21;101701.25;1427508;89;22356;-79
2022/01/19 12:25:06;;;;;;;20.40;10.10;;;;;;;5.86;47.01;101701.52;1421540;90;20390;-79
2022/01/19 12:27:39;;;;;;;17.90;11.00;;;;;;;6.00;47.88;101698.98;1421727;90;22374;-79
2022/01/19 12:30:16;;;;;;;14.13;9.43;;;;;;;6.24;47.63;101692.81;1431466;90;21583;-79
2022/01/19 12:32:48;;;;;;;18.03;10.47;;;;;;;6.10;46.73;101686.19;1433588;90;21641;-80
2022/01/19 12:35:34;;;;;;;20.70;9.20;;;;;;;6.15;47.49;101686.75;1404593;91;21494;-79
2022/01/19 12:38:07;;;;;;;17.50;9.70;;;;;;;6.12;46.61;101673.78;1413207;90;21989;-79
2022/01/19 12:40:42;;;;;;;16.90;8.90;;;;;;;6.08;46.99;101670.97;1424361;90;22411;-79
2022/01/19 12:43:14;;;;;;;15.77;10.13;;;;;;;6.14;46.52;101664.51;1423348;91;21450;-79
2022/01/19 12:45:49;;;;;;;15.43;9.00;;;;;;;6.29;47.44;101655.24;1420649;90;21441;-79